createdAt,value
2023-02-14T00:02:12.172Z,101625.38
2023-02-14T00:04:46.419Z,101629.50
2023-02-14T00:07:20.268Z,101621.47
2023-02-14T00:09:58.087Z,101603.22
2023-02-14T00:12:29.606Z,101602.56
2023-02-14T00:15:23.732Z,101598.09
2023-02-14T00:18:00.170Z,101603.19
2023-02-14T00:20:36.508Z,101595.91
2023-02-14T00:23:11.677Z,101595.25
2023-02-14T00:25:43.292Z,101576.34
2023-02-14T00:28:23.922Z,101577.94
2023-02-14T00:30:58.349Z,101563.31
2023-02-14T00:33:35.187Z,101567.75
2023-02-14T00:36:12.951Z,101568.81
2023-02-14T00:38:45.986Z,101558.81
2023-02-14T00:44:11.855Z,101551.41
2023-02-14T00:46:42.585Z,101549.19
2023-02-14T00:49:12.349Z,101545.03
2023-02-14T00:51:42.316Z,101533.78
2023-02-14T00:54:16.742Z,101520.31
2023-02-14T00:56:50.277Z,101516.28
2023-02-14T00:59:25.232Z,101518.28
2023-02-14T01:01:57.082Z,101524.88
2023-02-14T01:04:35.180Z,101516.84
2023-02-14T01:07:07.891Z,101510.88
2023-02-14T01:09:38.717Z,101506.00
2023-02-14T01:12:08.867Z,101510.78
2023-02-14T01:14:39.012Z,101500.69
2023-02-14T01:17:09.554Z,101497.53
2023-02-14T01:19:42.786Z,101487.31
2023-02-14T01:22:16.147Z,101484.44
2023-02-14T01:24:45.889Z,101469.50
2023-02-14T01:27:16.570Z,101461.97
2023-02-14T01:29:50.068Z,101452.41
2023-02-14T01:35:21.074Z,101454.75
2023-02-14T01:37:53.234Z,101465.03
2023-02-14T01:40:23.063Z,101469.00
2023-02-14T01:42:52.429Z,101469.94
2023-02-14T01:45:28.084Z,101458.03
2023-02-14T01:48:06.933Z,101447.22
2023-02-14T01:50:43.058Z,101442.75
2023-02-14T01:53:27.861Z,101447.22
2023-02-14T01:56:12.017Z,101423.91
2023-02-14T01:58:45.922Z,101417.22
2023-02-14T02:01:18.833Z,101408.84
2023-02-14T02:03:56.014Z,101419.19
2023-02-14T02:06:54.392Z,101408.63
2023-02-14T02:09:48.510Z,101418.69
2023-02-14T02:12:36.805Z,101417.50
2023-02-14T02:15:08.463Z,101416.22
2023-02-14T02:18:11.166Z,101411.34
2023-02-14T02:21:17.672Z,101416.97
2023-02-14T02:24:49.184Z,101402.22
2023-02-14T02:27:17.863Z,101399.69
2023-02-14T02:30:25.945Z,101393.72
2023-02-14T02:33:31.850Z,101394.81
2023-02-14T02:36:10.831Z,101388.66
2023-02-14T02:38:48.746Z,101384.97
2023-02-14T02:41:49.795Z,101388.88
2023-02-14T02:44:36.571Z,101392.69
2023-02-14T02:47:47.999Z,101382.72
2023-02-14T02:50:42.795Z,101374.34
2023-02-14T02:53:43.008Z,101375.63
2023-02-14T02:56:52.220Z,101372.91
2023-02-14T02:59:33.878Z,101367.09
2023-02-14T03:02:20.273Z,101356.56
2023-02-14T03:04:56.251Z,101351.13
2023-02-14T03:07:41.198Z,101350.06
2023-02-14T03:10:23.929Z,101338.28
2023-02-14T03:13:14.226Z,101337.16
2023-02-14T03:16:03.199Z,101337.91
2023-02-14T03:19:43.128Z,101324.47
2023-02-14T03:22:53.166Z,101319.44
2023-02-14T03:25:40.543Z,101329.53
2023-02-14T03:28:31.553Z,101307.03
2023-02-14T03:31:17.988Z,101303.28
2023-02-14T03:34:05.021Z,101304.75
2023-02-14T03:36:44.043Z,101295.31
2023-02-14T03:39:41.988Z,101274.84
2023-02-14T03:42:26.918Z,101274.97
2023-02-14T03:44:58.660Z,101279.94
2023-02-14T03:47:33.407Z,101270.50
2023-02-14T03:50:17.270Z,101261.38
2023-02-14T03:52:51.555Z,101258.59
2023-02-14T03:55:29.676Z,101260.63
2023-02-14T03:58:17.394Z,101249.06
2023-02-14T04:00:51.738Z,101248.03
2023-02-14T04:03:23.840Z,101242.69
2023-02-14T04:05:53.379Z,101244.31
2023-02-14T04:08:25.795Z,101247.41
2023-02-14T04:10:57.001Z,101235.66
2023-02-14T04:13:25.218Z,101238.66
2023-02-14T04:15:54.374Z,101236.63
2023-02-14T04:18:46.699Z,101227.03
2023-02-14T04:21:19.005Z,101217.81
2023-02-14T04:23:50.775Z,101223.31
2023-02-14T04:26:22.170Z,101209.31
2023-02-14T04:28:51.698Z,101212.25
2023-02-14T04:31:20.790Z,101206.94
2023-02-14T04:33:54.086Z,101208.16
2023-02-14T04:36:25.242Z,101209.88
2023-02-14T04:38:57.129Z,101205.78
2023-02-14T04:41:28.069Z,101195.66
2023-02-14T04:43:56.668Z,101190.91
2023-02-14T04:46:27.485Z,101199.25
2023-02-14T04:48:58.592Z,101200.19
2023-02-14T04:51:27.751Z,101194.25
2023-02-14T04:53:57.727Z,101183.75
2023-02-14T04:56:28.361Z,101189.34
2023-02-14T04:58:57.823Z,101185.50
2023-02-14T05:01:26.810Z,101180.41
2023-02-14T05:03:56.142Z,101178.16
2023-02-14T05:06:26.435Z,101168.63
2023-02-14T05:08:57.208Z,101185.41
2023-02-14T05:11:29.699Z,101175.38
2023-02-14T05:13:59.339Z,101181.66
2023-02-14T05:16:32.863Z,101174.34
2023-02-14T05:19:01.862Z,101170.94
2023-02-14T05:21:33.541Z,101174.50
2023-02-14T05:24:02.928Z,101175.09
2023-02-14T05:26:34.137Z,101166.28
2023-02-14T05:29:05.784Z,101171.84
2023-02-14T05:31:47.044Z,101172.09
2023-02-14T05:34:16.670Z,101160.97
2023-02-14T05:36:47.857Z,101159.53
2023-02-14T05:39:21.642Z,101156.84
2023-02-14T05:41:51.912Z,101158.47
2023-02-14T05:44:22.638Z,101157.84
2023-02-14T05:46:52.295Z,101152.03
2023-02-14T05:49:23.056Z,101158.47
2023-02-14T05:51:52.236Z,101139.25
2023-02-14T05:54:22.366Z,101149.28
2023-02-14T05:57:24.514Z,101135.66
2023-02-14T05:59:58.520Z,101138.78
2023-02-14T06:02:27.693Z,101144.81
2023-02-14T06:05:05.211Z,101142.28
2023-02-14T06:07:50.790Z,101134.31
2023-02-14T06:10:26.966Z,101134.69
2023-02-14T06:13:01.464Z,101129.63
2023-02-14T06:15:30.982Z,101123.56
2023-02-14T06:18:02.970Z,101126.34
2023-02-14T06:20:33.709Z,101120.19
2023-02-14T06:23:05.678Z,101125.03
2023-02-14T06:28:40.445Z,101112.72
2023-02-14T06:31:17.852Z,101119.22
2023-02-14T06:33:46.584Z,101098.47
2023-02-14T06:36:16.173Z,101109.91
2023-02-14T06:38:48.144Z,101100.91
2023-02-14T06:41:18.104Z,101107.75
2023-02-14T06:43:52.628Z,101105.38
2023-02-14T06:46:22.830Z,101106.31
2023-02-14T06:48:52.211Z,101102.81
2023-02-14T06:51:23.141Z,101104.75
2023-02-14T06:53:57.777Z,101099.69
2023-02-14T06:56:35.111Z,101099.69
2023-02-14T06:59:07.028Z,101100.66
2023-02-14T07:08:20.842Z,101088.81
2023-02-14T07:10:54.961Z,101090.03
2023-02-14T07:13:37.702Z,101088.22
2023-02-14T07:16:11.207Z,101088.69
2023-02-14T07:18:41.393Z,101098.72
2023-02-14T07:21:25.733Z,101085.81
2023-02-14T07:24:11.286Z,101091.22
2023-02-14T07:26:40.920Z,101093.66
2023-02-14T07:29:18.746Z,101083.72
2023-02-14T07:31:48.568Z,101083.38
2023-02-14T07:34:19.176Z,101080.38
2023-02-14T07:37:02.734Z,101081.34
2023-02-14T07:39:34.187Z,101080.94
2023-02-14T07:42:04.834Z,101080.09
2023-02-14T07:44:34.555Z,101076.16
2023-02-14T07:47:06.004Z,101071.63
2023-02-14T07:49:36.180Z,101078.69
2023-02-14T07:52:17.020Z,101067.34
2023-02-14T07:54:46.281Z,101069.50
2023-02-14T07:57:35.765Z,101051.88
2023-02-14T08:00:08.871Z,101058.31
2023-02-14T08:02:38.364Z,101058.66
2023-02-14T08:05:08.025Z,101058.28
2023-02-14T08:07:39.558Z,101059.09
2023-02-14T08:10:12.056Z,101072.75
2023-02-14T08:13:01.415Z,101063.16
2023-02-14T08:15:54.801Z,101063.00
2023-02-14T08:18:28.709Z,101055.78
2023-02-14T08:21:07.774Z,101052.84
2023-02-14T08:23:47.497Z,101064.72
2023-02-14T08:26:18.083Z,101065.91
2023-02-14T08:28:52.328Z,101054.53
2023-02-14T08:31:36.243Z,101063.00
2023-02-14T08:34:11.086Z,101057.66
2023-02-14T08:36:41.956Z,101071.56
2023-02-14T08:39:11.099Z,101076.50
2023-02-14T08:41:41.166Z,101077.44
2023-02-14T08:44:10.917Z,101065.50
2023-02-14T08:46:54.210Z,101073.31
2023-02-14T08:49:25.581Z,101074.31
2023-02-14T08:51:58.391Z,101079.34
2023-02-14T08:54:27.686Z,101078.41
2023-02-14T08:56:59.156Z,101082.00
2023-02-14T08:59:28.402Z,101080.84
2023-02-14T09:01:58.930Z,101083.69
2023-02-14T09:04:36.388Z,101084.44
2023-02-14T09:07:07.525Z,101094.59
2023-02-14T09:09:36.240Z,101089.53
2023-02-14T09:12:10.076Z,101094.59
2023-02-14T09:14:45.687Z,101084.72
2023-02-14T09:17:25.170Z,101097.13
2023-02-14T09:20:02.092Z,101098.22
2023-02-14T09:22:37.230Z,101107.28
2023-02-14T09:25:07.852Z,101100.41
2023-02-14T09:27:45.436Z,101105.22
2023-02-14T09:30:18.968Z,101093.13
2023-02-14T09:35:39.891Z,101091.94
2023-02-14T09:38:20.181Z,101092.63
2023-02-14T09:40:51.268Z,101084.44
2023-02-14T09:43:42.428Z,101088.19
2023-02-14T09:46:16.991Z,101078.97
2023-02-14T09:48:48.908Z,101067.00
2023-02-14T09:51:22.196Z,101065.25
2023-02-14T09:54:13.963Z,101077.28
2023-02-14T10:00:24.707Z,101076.97
2023-02-14T10:03:07.512Z,101083.34
2023-02-14T10:05:58.439Z,101084.81
2023-02-14T10:08:46.967Z,101080.44
2023-02-14T10:11:23.292Z,101082.47
2023-02-14T10:14:25.782Z,101074.50
2023-02-14T10:17:32.779Z,101074.84
2023-02-14T10:20:35.483Z,101079.41
2023-02-14T10:23:51.241Z,101084.03
2023-02-14T10:26:33.534Z,101085.72
2023-02-14T10:29:09.554Z,101079.06
2023-02-14T10:31:53.060Z,101087.16
2023-02-14T10:34:51.298Z,101080.66
2023-02-14T10:38:10.097Z,101082.59
2023-02-14T10:41:06.664Z,101079.06
2023-02-14T10:44:15.534Z,101085.69
2023-02-14T10:47:23.429Z,101075.38
2023-02-14T10:50:09.133Z,101077.69
2023-02-14T10:53:11.426Z,101075.41
2023-02-14T10:55:54.336Z,101068.31
2023-02-14T10:58:27.007Z,101073.97
2023-02-14T11:01:11.283Z,101060.03
2023-02-14T11:03:51.155Z,101064.28
2023-02-14T11:06:28.641Z,101052.28
2023-02-14T11:09:00.614Z,101055.19
2023-02-14T11:12:12.435Z,101055.72
2023-02-14T11:14:41.484Z,101066.38
2023-02-14T11:20:37.754Z,101061.84
2023-02-14T11:23:27.900Z,101054.22
2023-02-14T11:25:57.892Z,101045.41
2023-02-14T11:28:46.706Z,101042.25
2023-02-14T11:31:16.172Z,101045.06
2023-02-14T11:33:50.923Z,101040.09
2023-02-14T11:36:29.952Z,101043.44
2023-02-14T11:39:37.787Z,101040.50
2023-02-14T11:42:07.354Z,101043.09
2023-02-14T11:48:38.594Z,101055.47
2023-02-14T11:51:15.507Z,101061.03
2023-02-14T11:53:57.225Z,101049.78
2023-02-14T11:56:54.156Z,101054.78
2023-02-14T11:59:55.868Z,101057.84
2023-02-14T12:02:42.615Z,101055.66
2023-02-14T12:05:45.533Z,101046.63
2023-02-14T12:08:15.339Z,101032.94
2023-02-14T12:14:02.121Z,101043.63
2023-02-14T12:17:01.446Z,101032.81
2023-02-14T12:20:09.005Z,101035.84
2023-02-14T12:23:03.708Z,101037.03
2023-02-14T12:26:26.385Z,101038.13
2023-02-14T12:29:23.403Z,101035.53
2023-02-14T12:31:57.982Z,101039.09
2023-02-14T12:34:40.233Z,101041.19
2023-02-14T12:37:22.146Z,101043.97
2023-02-14T12:39:57.370Z,101035.06
2023-02-14T12:43:09.851Z,101045.75
2023-02-14T12:46:20.983Z,101045.53
2023-02-14T12:49:19.101Z,101044.81
2023-02-14T12:52:33.380Z,101054.78
2023-02-14T13:02:39.133Z,101050.72
2023-02-14T13:05:22.521Z,101060.28
2023-02-14T13:08:23.931Z,101051.03
2023-02-14T13:11:34.339Z,101053.06
2023-02-14T13:14:39.876Z,101063.00
2023-02-14T13:17:39.690Z,101049.22
2023-02-14T13:20:32.003Z,101059.63
2023-02-14T13:23:20.104Z,101067.47
2023-02-14T13:26:05.136Z,101061.97
2023-02-14T13:28:38.990Z,101058.47
2023-02-14T13:31:08.057Z,101049.16
2023-02-14T13:33:58.564Z,101068.25
2023-02-14T13:36:48.912Z,101079.47
2023-02-14T13:39:46.495Z,101073.50
2023-02-14T13:42:52.347Z,101082.91
2023-02-14T13:45:38.118Z,101082.56
2023-02-14T13:51:25.164Z,101079.03
2023-02-14T13:54:09.878Z,101084.22
2023-02-14T13:59:50.066Z,101088.31
2023-02-14T14:02:33.846Z,101081.56
2023-02-14T14:05:50.246Z,101087.13
2023-02-14T14:08:30.649Z,101076.22
2023-02-14T14:11:02.839Z,101083.69
2023-02-14T14:13:43.152Z,101084.81
2023-02-14T14:16:20.890Z,101084.41
2023-02-14T14:19:15.106Z,101090.63
2023-02-14T14:31:43.837Z,101090.59
2023-02-14T14:43:41.243Z,101092.44
2023-02-14T14:46:15.815Z,101098.31
2023-02-14T14:51:51.040Z,101109.88
2023-02-14T15:04:42.578Z,101115.56
2023-02-14T15:07:37.504Z,101109.56
2023-02-14T15:13:59.073Z,101118.47
2023-02-14T15:20:02.179Z,101123.78
2023-02-14T15:25:50.531Z,101134.16
2023-02-14T15:28:36.344Z,101139.72
2023-02-14T15:31:14.531Z,101136.09
2023-02-14T15:34:00.513Z,101142.25
2023-02-14T15:36:33.554Z,101137.53
2023-02-14T15:41:58.375Z,101138.00
2023-02-14T15:50:27.135Z,101149.03
2023-02-14T15:53:40.788Z,101160.97
2023-02-14T16:12:16.250Z,101175.50
2023-02-14T16:15:28.732Z,101170.44
2023-02-14T16:18:37.113Z,101179.34
2023-02-14T16:21:25.420Z,101189.97
2023-02-14T16:33:03.307Z,101191.56
2023-02-14T16:36:01.303Z,101196.03
2023-02-14T16:48:22.923Z,101196.97
2023-02-14T16:51:19.690Z,101198.94
2023-02-14T16:54:25.095Z,101204.59
2023-02-14T17:03:26.754Z,101214.59
2023-02-14T17:06:19.762Z,101207.59
2023-02-14T17:09:07.827Z,101218.34
2023-02-14T17:18:11.085Z,101228.13
2023-02-14T17:20:57.793Z,101228.59
2023-02-14T17:23:28.530Z,101240.44
2023-02-14T17:26:14.677Z,101230.66
2023-02-14T17:28:51.579Z,101231.63
2023-02-14T17:31:22.145Z,101227.63
2023-02-14T17:33:52.550Z,101227.75
2023-02-14T17:36:33.436Z,101239.22
2023-02-14T17:39:04.938Z,101239.97
2023-02-14T17:41:34.415Z,101244.41
2023-02-14T17:44:06.390Z,101235.47
2023-02-14T17:46:36.147Z,101234.63
2023-02-14T17:49:07.035Z,101239.09
2023-02-14T17:51:44.273Z,101237.63
2023-02-14T18:00:22.715Z,101238.47
2023-02-14T18:11:50.201Z,101240.44
2023-02-14T18:14:19.857Z,101242.34
2023-02-14T18:16:54.418Z,101239.84
2023-02-14T18:19:25.259Z,101242.59
2023-02-14T18:21:59.287Z,101240.91
2023-02-14T18:27:28.095Z,101241.97
2023-02-14T18:41:25.703Z,101243.09
2023-02-14T18:46:58.423Z,101256.38
2023-02-14T18:49:28.371Z,101253.22
2023-02-14T18:52:01.801Z,101255.53
2023-02-14T18:54:32.058Z,101264.78
2023-02-14T18:57:17.591Z,101270.25
2023-02-14T18:59:46.791Z,101261.31
2023-02-14T19:02:16.224Z,101260.00
2023-02-14T19:04:45.175Z,101265.28
2023-02-14T19:07:38.698Z,101271.69
2023-02-14T19:13:00.907Z,101272.88
2023-02-14T19:18:28.264Z,101280.00
2023-02-14T19:20:59.998Z,101280.97
2023-02-14T19:23:33.486Z,101275.63
2023-02-14T19:26:46.051Z,101283.63
2023-02-14T19:29:18.408Z,101291.16
2023-02-14T19:31:51.847Z,101286.44
2023-02-14T19:34:28.296Z,101287.00
2023-02-14T19:37:39.256Z,101280.28
2023-02-14T19:40:11.668Z,101295.94
2023-02-14T19:42:41.332Z,101294.97
2023-02-14T19:48:45.492Z,101289.31
2023-02-14T19:51:29.603Z,101294.03
2023-02-14T19:54:03.023Z,101297.19
2023-02-14T19:56:34.244Z,101292.31
2023-02-14T19:59:07.975Z,101294.13
2023-02-14T20:01:43.458Z,101295.03
2023-02-14T20:04:17.803Z,101294.53
2023-02-14T20:06:47.324Z,101298.25
2023-02-14T20:09:19.134Z,101295.72
2023-02-14T20:11:55.243Z,101303.25
2023-02-14T20:14:40.931Z,101300.28
2023-02-14T20:17:25.810Z,101312.13
2023-02-14T20:19:56.273Z,101308.13
2023-02-14T20:22:28.321Z,101313.22
2023-02-14T20:25:06.754Z,101318.84
2023-02-14T20:27:40.432Z,101308.19
2023-02-14T20:30:09.612Z,101316.16
2023-02-14T20:32:38.546Z,101310.75
2023-02-14T20:35:09.378Z,101319.31
2023-02-14T20:37:39.771Z,101316.59
2023-02-14T20:40:10.656Z,101324.09
2023-02-14T20:42:43.613Z,101320.22
2023-02-14T20:45:11.628Z,101331.19
2023-02-14T20:47:41.125Z,101323.91
2023-02-14T20:50:09.567Z,101327.22
2023-02-14T20:52:39.955Z,101322.34
2023-02-14T20:55:11.702Z,101320.56
2023-02-14T20:57:39.777Z,101329.25
2023-02-14T21:00:14.660Z,101325.56
2023-02-14T21:02:49.608Z,101331.59
2023-02-14T21:05:22.333Z,101334.56
2023-02-14T21:07:50.802Z,101337.66
2023-02-14T21:10:20.377Z,101344.16
2023-02-14T21:12:50.833Z,101348.47
2023-02-14T21:15:22.889Z,101341.06
2023-02-14T21:17:58.271Z,101354.09
2023-02-14T21:20:32.848Z,101343.00
2023-02-14T21:23:06.772Z,101353.25
2023-02-14T21:25:35.209Z,101348.69
2023-02-14T21:28:05.194Z,101361.56
2023-02-14T21:30:36.344Z,101355.59
2023-02-14T21:33:08.121Z,101362.06
2023-02-14T21:35:38.421Z,101360.91
2023-02-14T21:38:08.200Z,101362.06
2023-02-14T21:40:41.190Z,101359.09
2023-02-14T21:43:11.135Z,101367.31
2023-02-14T21:45:55.915Z,101367.16
2023-02-14T21:48:45.066Z,101369.13
2023-02-14T21:51:20.449Z,101374.53
2023-02-14T21:53:54.753Z,101371.56
2023-02-14T21:56:27.072Z,101378.03
2023-02-14T21:58:57.763Z,101378.00
2023-02-14T22:01:36.997Z,101386.00
2023-02-14T22:04:13.070Z,101384.06
2023-02-14T22:06:43.149Z,101382.44
2023-02-14T22:09:14.704Z,101383.97
2023-02-14T22:11:51.583Z,101380.63
2023-02-14T22:14:26.133Z,101386.88
2023-02-14T22:16:54.246Z,101387.38
2023-02-14T22:19:24.146Z,101391.19
2023-02-14T22:21:52.506Z,101394.38
2023-02-14T22:24:22.696Z,101405.56
2023-02-14T22:26:56.132Z,101393.44
2023-02-14T22:29:28.599Z,101404.56
2023-02-14T22:31:57.976Z,101404.81
2023-02-14T22:34:27.014Z,101411.16
2023-02-14T22:36:58.868Z,101402.41
2023-02-14T22:39:29.406Z,101414.34
2023-02-14T22:41:59.076Z,101409.53
2023-02-14T22:44:29.404Z,101417.78
2023-02-14T22:47:01.634Z,101416.66
2023-02-14T22:49:34.689Z,101420.50
2023-02-14T22:52:07.573Z,101429.41
2023-02-14T22:54:47.719Z,101420.34
2023-02-14T22:57:20.877Z,101424.84
2023-02-14T22:59:50.522Z,101432.88
2023-02-14T23:02:23.955Z,101431.13
2023-02-14T23:04:53.332Z,101426.25
2023-02-14T23:07:23.240Z,101433.03
2023-02-14T23:10:06.168Z,101432.13
2023-02-14T23:12:54.537Z,101433.47
2023-02-14T23:15:43.582Z,101449.66
2023-02-14T23:18:33.555Z,101455.75
2023-02-14T23:21:24.823Z,101455.81
2023-02-14T23:23:56.079Z,101456.06
2023-02-14T23:26:27.669Z,101461.97
2023-02-14T23:28:59.067Z,101464.09
2023-02-14T23:31:28.350Z,101469.19
2023-02-14T23:33:57.334Z,101486.09
2023-02-14T23:36:25.630Z,101474.94
2023-02-14T23:38:59.789Z,101484.38
2023-02-14T23:41:53.554Z,101485.53
2023-02-14T23:44:30.981Z,101491.03
2023-02-14T23:47:04.206Z,101488.72
2023-02-14T23:49:39.842Z,101495.41
2023-02-14T23:52:15.749Z,101493.22
2023-02-14T23:54:44.334Z,101497.16
2023-02-14T23:57:13.582Z,101503.00
2023-02-14T23:59:43.074Z,101500.44
